aviador You're here:

LZPP Decoded Metar

PIESTANY in SLOVAKIA
Report Time2017-11-25 00:00:00
UTC Time2017-11-25 00:24:05
Flight Rules ifr IFR
WindVRB at 01 kt
Visibility9999 m
Phenomena:N/A
Clouds:Overcast 009 Hf
Expected CloudBase > 400 ft AGL from Temp-Dew spread
Ceiling900 ft
Temp05°C (ISA -9)
Dew Point04°C (93% RH)
AAT3.3°C
QNH1018 hPa
Density Alt-610 ft
Elevation528 ft
Report Wrong Elevation
Raw Report
LZPP 250000Z AUTO VRB01KT 9999 OVC009/// 05/04 Q1018=

Extra information for LZPP:More info

Metar Taf Metar & Taf Last 4 Metars F.Rules Stats Wind Profile Meteogram Temp Stats Airport Information Weather charts Add Link Nearby VenuesMetar ALERT Operation Metar Decoded Social comments